Latest Coastal Weather Observations for Gabo Island (VIC)

IDN60701

Issued at 11:41 pm EST Thursday 17 August 2017 (issued every 10 minutes, with the page automatically refreshed every 10 minutes)

About coastal observations | Map of coastal stations | Coastal observations for NSW | Marine services | Other Formats
Station Details ID: 084016 Name: GABO ISLAND LIGHTHOUSE Lat: -37.57 Lon: 149.92 Height: 15.2 m
Data from the previous 72 hours. | See also: Recent months at Gabo Island (VIC)
Date/Time
EST
Temp
°C
Wind Pressure Rain since
9am
mm
Weather Cloud Vis
km
Sea
Height
m
Swell
Dir  Spd
kts
Gust
kts
hPa Trend Height
m
Period
s
Dir
17/11:30pm 9.9 W 13 18 1001.9 - 1.0 - - - - - - -
17/11:00pm 10.6 W 17 21 1001.8 - 1.0 - - - - - - -
17/10:30pm 10.7 W 17 21 1002.1 - 1.0 - - - - - - -
17/10:00pm 10.6 W 13 18 1002.7 - 1.0 - - - - - - -
17/09:30pm 10.2 NW 10 15 1002.6 - 1.0 - - - - - - -
17/09:00pm 10.3 NW 10 15 1002.5 - 1.0 Lightning Mostly clear 30 1 1.0 - -
17/08:30pm 10.2 NW 9 14 1002.7 - 1.0 - - - - - - -
17/08:00pm 10.5 WNW 8 11 1002.6 - 1.0 - - - - - - -
17/07:30pm 10.3 NW 8 12 1002.5 - 1.0 - - - - - - -
17/07:00pm 10.8 NW 15 28 1003.0 - 1.0 - - - - - - -
17/06:53pm 10.8 NW 16 28 1003.1 - 1.0 - - - - - - -
17/06:30pm 11.1 W 9 11 1001.6 - 1.0 - - - - - - -
17/06:00pm 10.4 W 7 9 1000.9 - 1.0 - - - - - - -
17/05:30pm 10.5 W 6 8 1000.6 - 1.0 - - - - - - -
17/05:00pm 11.2 W 6 7 1000.6 - 1.0 - - - - - - -
17/04:30pm 11.7 W 6 7 1000.6 - 1.0 - - - - - - -
17/04:00pm 11.8 W 6 9 1000.1 - 0.8 - - - - - - -
17/03:30pm 11.4 W 15 22 1000.2 - 0.8 - - - - - - -
17/03:06pm 11.0 WSW 27 37 1000.5 - 0.8 - - - - - - -
17/03:00pm 10.9 WSW 29 38 1000.7 - 0.6 Showers Cloudy 10 1 1.0 - -
17/02:30pm 12.1 SW 33 43 999.4 - 0.0 - - - - - - -
17/02:26pm 12.8 SW 31 41 999.3 - 0.0 - - - - - - -
17/02:24pm 13.0 SW 30 36 999.3 - 0.0 - - - - - - -
17/02:00pm 13.5 SSW 18 24 998.7 - 0.0 - - - - - - -
17/01:30pm 17.3 WSW 12 20 998.4 - 0.0 - - - - - - -
17/01:00pm 18.8 WNW 18 24 998.5 - 0.0 - - - - - - -
17/12:46pm 18.7 WNW 16 25 998.6 - 0.0 - - - - - - -
17/12:30pm 19.2 W 10 14 998.8 - 0.0 - - - - - - -
17/12:00pm 18.4 W 10 14 999.3 - 0.0 - - - - - - -
17/11:30am 18.1 WNW 9 14 1000.0 - 0.0 - - - - - - -
17/11:00am 17.8 WNW 10 16 1000.6 - 0.0 - - - - - - -
17/10:30am 17.2 WNW 10 15 1000.9 - 0.0 - - - - - - -
17/10:00am 16.6 WNW 11 18 1001.2 - 0.0 - - - - - - -
17/09:30am 16.0 WNW 10 17 1001.6 - 0.0 - - - - - - -
17/09:00am 15.7 NW 7 11 1001.9 - 0.0 Fine Partly cloudy 50 1 1.0 - -
17/08:30am 15.0 NW 10 16 1002.1 - 0.0 - - - - - - -
17/08:00am 15.1 NW 8 12 1001.8 - 0.0 - - - - - - -
17/07:30am 13.5 WNW 7 11 1001.8 - 0.0 - - - - - - -
17/07:00am 11.9 W 5 7 1001.5 - 0.0 - - - - - - -
17/06:30am 11.3 W 6 8 1001.7 - 0.0 - - - - - - -
17/06:00am 12.1 W 10 12 1001.5 - 0.0 - - - - - - -
17/05:30am 13.1 W 10 14 1001.5 - 0.0 - - - - - - -
17/05:00am 13.2 WNW 9 16 1000.9 - 0.0 - - - - - - -
17/04:30am 12.1 WNW 5 7 1000.7 - 0.0 - - - - - - -
17/04:00am 11.4 W 6 8 1000.6 - 0.0 - - - - - - -
17/03:30am 11.6 WNW 6 9 1000.7 - 0.0 - - - - - - -
17/03:00am 11.8 WNW 6 7 1001.0 - 0.0 Fine Clear 50 <0.5 1.0 - -
17/02:30am 11.9 WNW 7 9 1001.3 - 0.0 - - - - - - -
17/02:00am 12.2 WNW 8 12 1001.6 - 0.0 - - - - - - -
17/01:30am 12.2 NW 8 12 1001.8 - 0.0 - - - - - - -
17/01:00am 12.0 NW 7 10 1002.2 - 0.0 - - - - - - -
17/12:30am 12.1 NW 6 9 1002.3 - 0.0 - - - - - - -
17/12:00am 12.3 NW 6 8 1002.4 - 0.0 - - - - - - -
 
Date/Time
EST
Temp
°C
Wind Pressure Rain since
9am
mm
Weather Cloud Vis
km
Sea
Height
m
Swell
Dir  Spd
kts
Gust
kts
hPa Trend Height
m
Period
s
Dir
16/11:30pm 12.9 NW 9 13 1002.5 - 0.0 - - - - - - -
16/11:00pm 12.2 NNW 9 11 1002.5 - 0.0 - - - - - - -
16/10:30pm 12.4 NNW 8 11 1002.5 - 0.0 - - - - - - -
16/10:00pm 12.7 NNW 8 11 1002.7 - 0.0 - - - - - - -
16/09:30pm 12.9 NW 7 10 1002.7 - 0.0 - - - - - - -
16/09:00pm 13.4 NW 8 10 1002.4 - 0.0 Fine Mostly clear 40 1 1.0 - -
16/08:30pm 14.3 WNW 10 15 1002.3 - 0.0 - - - - - - -
16/08:00pm 14.5 WNW 11 15 1001.9 - 0.0 - - - - - - -
16/07:30pm 14.4 WNW 9 14 1001.1 - 0.0 - - - - - - -
16/07:00pm 14.3 NW 9 12 1000.8 - 0.0 - - - - - - -
16/06:30pm 13.3 NNW 8 11 1000.3 - 0.0 - - - - - - -
16/06:00pm 13.5 W 11 13 999.7 - 0.0 - - - - - - -
16/05:30pm 13.5 WSW 9 12 999.0 - 0.0 - - - - - - -
16/05:00pm 14.4 SW 15 19 998.4 - 0.0 - - - - - - -
16/04:30pm 14.9 SW 21 25 997.7 - 0.0 - - - - - - -
16/04:00pm 15.1 SW 25 29 997.1 - 0.0 - - - - - - -
16/03:30pm 15.1 SW 24 28 996.5 - 0.0 - - - - - - -
16/03:00pm 15.2 SW 23 27 995.9 - 0.0 Fine Mostly clear 40 1 1.0 - -
16/02:30pm 15.0 SW 25 29 995.5 - 0.0 - - - - - - -
16/02:00pm 14.9 SW 22 27 995.3 - 0.0 - - - - - - -
16/01:50pm 15.6 SW 19 26 995.1 - 0.0 - - - - - - -
16/01:30pm 17.3 WSW 23 30 994.8 - 0.0 - - - - - - -
16/01:00pm 17.7 WSW 17 23 994.8 - 0.0 - - - - - - -
16/12:30pm 17.1 W 23 31 994.7 - 0.0 - - - - - - -
16/12:03pm 16.9 W 21 33 994.5 - 0.0 - - - - - - -
16/12:00pm 17.2 W 20 27 994.4 - 0.0 - - - - - - -
16/11:34am 17.1 W 22 32 994.2 - 0.0 - - - - - - -
16/11:30am 17.3 W 21 29 994.2 - 0.0 - - - - - - -
16/11:00am 16.8 W 18 23 994.2 - 0.0 - - - - - - -
16/10:30am 16.4 W 21 29 994.5 - 0.0 - - - - - - -
16/10:16am 15.7 W 16 26 994.4 - 0.0 - - - - - - -
16/10:00am 15.9 W 12 15 994.2 - 0.0 - - - - - - -
16/09:30am 14.8 W 6 9 994.1 - 0.0 - - - - - - -
16/09:00am 14.0 NW 5 7 994.1 - 5.8 Fine Mostly clear 30 <0.5 1.0 - -
16/08:30am 13.2 NW 5 6 994.2 - 5.8 - - - - - - -
16/08:00am 13.1 WNW 5 7 993.9 - 5.8 - - - - - - -
16/07:30am 13.0 SW 13 16 993.8 - 5.8 - - - - - - -
16/07:00am 13.1 SW 15 18 994.3 - 5.8 - - - - - - -
16/06:30am 13.2 SW 16 19 993.4 - 5.8 - - - - - - -
16/06:00am 13.3 SW 19 22 993.0 - 5.8 - - - - - - -
16/05:40am 14.0 WSW 16 29 992.5 - 5.8 - - - - - - -
16/05:39am 14.1 WSW 15 22 992.5 - 5.8 - - - - - - -
16/05:30am 14.9 NW 7 11 992.1 - 5.8 - - - - - - -
16/05:00am 14.6 NNW 7 10 992.1 - 5.8 - - - - - - -
16/04:30am 13.8 NNE 4 5 992.7 - 5.6 - - - - - - -
16/04:00am 13.8 N 6 8 992.8 - 5.6 - - - - - - -
16/03:30am 14.3 NNW 5 7 993.9 - 5.6 - - - - - - -
16/03:00am 14.0 NNW 6 7 994.2 - 5.2 Rain Cloudy 15 <0.5 1.0 - -
16/02:30am 14.3 NW 4 5 994.7 - 5.2 - - - - - - -
16/02:00am 14.5 N 7 8 995.5 - 5.0 - - - - - - -
16/01:30am 14.0 NNE 9 11 996.0 - 4.8 - - - - - - -
16/01:00am 14.2 N 8 11 996.2 - 4.4 - - - - - - -
16/12:30am 14.5 NNE 8 9 997.1 - 4.2 - - - - - - -
16/12:00am 14.1 NNE 6 7 997.5 - 4.2 Recent precip. - - - - - -
 
Date/Time
EST
Temp
°C
Wind Pressure Rain since
9am
mm
Weather Cloud Vis
km
Sea
Height
m
Swell
Dir  Spd
kts
Gust
kts
hPa Trend Height
m
Period
s
Dir
15/11:30pm 14.4 N 8 11 998.0 - 4.0 - - - - - - -
15/11:00pm 14.2 N 8 10 998.4 - 3.8 - - - - - - -
15/10:30pm 14.2 N 9 11 998.8 - 3.6 - - - - - - -
15/10:00pm 14.2 N 11 14 999.7 - 3.2 - - - - - - -
15/09:30pm 14.2 NNE 7 9 1000.3 - 2.8 - - - - - - -
15/09:00pm 14.9 N 9 11 1000.8 - 2.2 Rain Cloudy 15 <0.5 1.0 - -
15/08:30pm 15.4 N 11 16 1001.0 - 1.8 - - - - - - -
15/08:00pm 14.6 N 12 15 1000.9 - 1.4 - - - - - - -
15/07:30pm 14.8 N 10 13 1000.8 - 1.4 - - - - - - -
15/07:00pm 15.0 N 7 9 1000.7 - 1.4 - - - - - - -
15/06:30pm 14.9 NNE 10 13 1001.0 - 1.4 - - - - - - -
15/06:00pm 14.2 NE 5 9 1001.2 - 1.4 - - - - - - -
15/05:30pm 14.5 NNE 3 5 1001.8 - 1.4 - - - - - - -
15/05:00pm 14.7 NNE 8 9 1002.0 - 1.4 - - - - - - -
15/04:30pm 15.3 NNE 16 19 1001.4 - 1.4 - - - - - - -
15/04:00pm 15.7 N 20 25 1001.5 - 1.4 - - - - - - -
15/03:30pm 15.6 N 20 26 1001.3 - 1.4 - - - - - - -
15/03:00pm 15.2 N 19 22 1002.2 - 1.4 Fine Cloudy 40 <0.5 1.0 - -
15/02:30pm 14.3 N 10 15 1003.0 - 1.4 - - - - - - -
15/02:00pm 14.0 NE 13 15 1002.6 - 1.4 - - - - - - -
15/01:30pm 14.0 NNE 9 13 1003.5 - 1.4 - - - - - - -
15/01:00pm 13.7 NE 9 11 1004.1 - 1.4 - - - - - - -
15/12:30pm 14.5 NNE 5 6 1005.1 - 0.4 - - - - - - -
15/12:00pm 15.1 NE 7 8 1005.9 - 0.0 - - - - - - -
15/11:30am 15.6 N 11 14 1006.7 - 0.0 - - - - - - -
15/11:00am 15.7 NNE 13 17 1007.3 - 0.0 - - - - - - -
15/10:30am 16.2 N 14 19 1008.2 - 0.0 - - - - - - -
15/10:00am 15.7 N 13 16 1008.5 - 0.0 - - - - - - -
15/09:30am 15.3 NNE 13 17 1008.7 - 0.0 - - - - - - -
15/09:00am 13.6 N 9 11 1009.8 - 0.0 Fine Mostly cloudy 50 <0.5 1.0 - -
15/08:30am 12.0 NNE 9 12 1009.9 - 0.0 - - - - - - -
15/08:00am 11.1 NNE 7 8 1010.3 - 0.0 - - - - - - -
15/07:30am 9.9 N 4 6 1010.8 - 0.0 - - - - - - -
15/07:00am 10.3 NNE 7 8 1010.7 - 0.0 - - - - - - -
15/06:30am 10.4 E 3 4 1010.8 - 0.0 - - - - - - -
15/06:00am 10.1 CALM 0 0 1011.1 - 0.0 - - - - - - -
15/05:30am 9.4 NNW 3 5 1011.1 - 0.0 - - - - - - -
15/05:00am 10.1 W 5 7 1011.0 - 0.0 - - - - - - -
15/04:30am 11.6 NNE 3 6 1011.2 - 0.0 - - - - - - -
15/04:00am 11.9 NW 8 9 1011.3 - 0.0 - - - - - - -
15/03:30am 12.0 NW 8 9 1011.5 - 0.0 - - - - - - -
15/03:00am 12.4 NW 8 9 1011.8 - 0.0 Fine Clear 50 <0.5 1.0 - -
15/02:30am 11.7 WNW 7 8 1012.4 - 0.0 - - - - - - -
15/02:00am 12.3 NW 8 9 1012.8 - 0.0 - - - - - - -
15/01:30am 12.2 NW 7 9 1012.8 - 0.0 - - - - - - -
15/01:00am 12.4 NW 8 9 1012.8 - 0.0 - - - - - - -
15/12:30am 12.4 NW 8 9 1013.2 - 0.0 - - - - - - -
15/12:00am 12.5 WNW 8 10 1013.6 - 0.0 - - - - - - -

Other Formats:

Comma delimited format used in spreadsheet applications
http://www.bom.gov.au/fwo/IDN60701/IDN60701.94933.axf

JavaScript Object Notation format (JSON) in row-major order
http://www.bom.gov.au/fwo/IDN60701/IDN60701.94933.json